createdAt,value
2023-01-08T00:00:07.990Z,87.32
2023-01-08T00:01:48.245Z,87.18
2023-01-08T00:03:28.706Z,87.06
2023-01-08T00:05:08.864Z,87.07
2023-01-08T00:06:49.192Z,87.14
2023-01-08T00:08:29.471Z,87.1
2023-01-08T00:10:09.774Z,87.05
2023-01-08T00:11:50.085Z,86.78
2023-01-08T00:13:30.348Z,86.8
2023-01-08T00:15:10.646Z,86.74
2023-01-08T00:16:51.032Z,86.63
2023-01-08T00:18:31.236Z,86.29
2023-01-08T00:20:11.538Z,86.12
2023-01-08T00:21:51.819Z,86.27
2023-01-08T00:23:32.099Z,86.41
2023-01-08T00:25:12.424Z,86.48
2023-01-08T00:26:52.698Z,86.69
2023-01-08T00:28:33.043Z,86.9
2023-01-08T00:30:13.276Z,87.08
2023-01-08T00:31:53.576Z,87.18
2023-01-08T00:33:33.869Z,87.22
2023-01-08T00:35:14.168Z,87.31
2023-01-08T00:36:54.459Z,87.4
2023-01-08T00:38:34.752Z,87.53
2023-01-08T00:40:15.053Z,87.76
2023-01-08T00:41:55.351Z,87.81
2023-01-08T00:43:35.631Z,87.77
2023-01-08T00:45:15.933Z,87.73
2023-01-08T00:46:56.252Z,87.6
2023-01-08T00:48:36.507Z,87.51
2023-01-08T00:50:16.820Z,87.35
2023-01-08T00:51:57.172Z,87.11
2023-01-08T00:53:37.462Z,86.94
2023-01-08T00:55:17.746Z,86.66
2023-01-08T00:56:58.034Z,86.23
2023-01-08T00:58:38.330Z,86.03
2023-01-08T01:00:18.629Z,85.98
2023-01-08T01:01:59.042Z,85.85
2023-01-08T01:03:39.325Z,85.78
2023-01-08T01:05:19.493Z,85.96
2023-01-08T01:06:59.804Z,86.16
2023-01-08T01:08:40.104Z,86.24
2023-01-08T01:10:20.396Z,86.26
2023-01-08T01:12:00.706Z,86.28
2023-01-08T01:13:41.028Z,86.51
2023-01-08T01:15:21.290Z,86.77
2023-01-08T01:17:01.639Z,86.67
2023-01-08T01:18:41.881Z,87.15
2023-01-08T01:20:22.183Z,87.02
2023-01-08T01:22:02.475Z,86.81
2023-01-08T01:23:42.763Z,86.45
2023-01-08T01:25:23.061Z,86.26
2023-01-08T01:27:03.382Z,86.2
2023-01-08T01:28:43.696Z,86.08
2023-01-08T01:30:23.963Z,85.87
2023-01-08T01:32:04.293Z,85.86
2023-01-08T01:33:44.598Z,85.72
2023-01-08T01:35:24.865Z,85.74
2023-01-08T01:37:05.174Z,85.81
2023-01-08T01:38:45.468Z,85.74
2023-01-08T01:40:25.770Z,85.74
2023-01-08T01:42:06.058Z,86.01
2023-01-08T01:43:46.321Z,86.15
2023-01-08T01:45:26.631Z,86.27
2023-01-08T01:47:06.918Z,86.32
2023-01-08T01:48:47.236Z,86.45
2023-01-08T01:50:27.532Z,86.59
2023-01-08T01:52:07.812Z,86.76
2023-01-08T01:53:48.129Z,86.72
2023-01-08T01:55:28.391Z,86.97
2023-01-08T01:57:08.674Z,87.11
2023-01-08T01:58:49.002Z,87.11
2023-01-08T02:00:29.280Z,87.52
2023-01-08T02:02:09.712Z,87.72
2023-01-08T02:03:49.958Z,87.64
2023-01-08T02:05:30.148Z,87.44
2023-01-08T02:07:10.461Z,87.35
2023-01-08T02:08:50.769Z,87.16
2023-01-08T02:10:31.040Z,87.13
2023-01-08T02:12:11.340Z,86.09
2023-01-08T02:13:51.625Z,85.48
2023-01-08T02:15:31.939Z,85.16
2023-01-08T02:17:12.236Z,84.74
2023-01-08T02:18:52.529Z,84.46
2023-01-08T02:20:32.871Z,84.22
2023-01-08T02:22:13.136Z,84.07
2023-01-08T02:23:53.452Z,83.96
2023-01-08T02:25:33.745Z,84.17
2023-01-08T02:27:14.034Z,83.88
2023-01-08T02:28:54.323Z,83.65
2023-01-08T02:30:34.630Z,83.4
2023-01-08T02:32:14.926Z,83.37
2023-01-08T02:33:55.209Z,83.01
2023-01-08T02:35:35.510Z,83.03
2023-01-08T02:37:15.802Z,82.94
2023-01-08T02:38:56.107Z,83.04
2023-01-08T02:40:36.363Z,83.04
2023-01-08T02:42:16.674Z,82.86
2023-01-08T02:43:56.986Z,82.67
2023-01-08T02:45:37.276Z,82.5
2023-01-08T02:47:17.556Z,82.44
2023-01-08T02:48:57.867Z,82.63
2023-01-08T02:50:38.166Z,82.51
2023-01-08T02:52:18.446Z,82.75
2023-01-08T02:53:58.735Z,82.8
2023-01-08T02:55:39.044Z,82.82
2023-01-08T02:57:19.318Z,82.78
2023-01-08T02:58:59.635Z,82.77
2023-01-08T03:00:39.972Z,82.91
2023-01-08T03:02:20.420Z,82.87
2023-01-08T03:05:40.848Z,83.8
2023-01-08T03:07:21.107Z,84.29
2023-01-08T03:09:01.403Z,84.54
2023-01-08T03:10:41.848Z,84.94
2023-01-08T03:12:22.006Z,85.39
2023-01-08T03:14:02.406Z,85.24
2023-01-08T03:15:42.673Z,85.37
2023-01-08T03:17:22.970Z,85.76
2023-01-08T03:19:03.304Z,86.15
2023-01-08T03:20:43.635Z,86.19
2023-01-08T03:22:23.908Z,86.72
2023-01-08T03:24:04.228Z,86.92
2023-01-08T03:25:44.492Z,87.38
2023-01-08T03:27:24.779Z,87.17
2023-01-08T03:29:05.170Z,86.8
2023-01-08T03:30:45.470Z,87.29
2023-01-08T03:32:25.660Z,87.05
2023-01-08T03:34:05.973Z,86.95
2023-01-08T03:35:46.237Z,87.15
2023-01-08T03:37:26.554Z,87.2
2023-01-08T03:39:06.857Z,86.99
2023-01-08T03:40:47.162Z,86.98
2023-01-08T03:42:27.446Z,86.79
2023-01-08T03:44:07.743Z,86.77
2023-01-08T03:45:48.039Z,86.22
2023-01-08T03:47:28.298Z,86.29
2023-01-08T03:49:08.631Z,86.18
2023-01-08T03:50:48.928Z,86.02
2023-01-08T03:52:29.224Z,85.94
2023-01-08T03:55:49.825Z,85.7
2023-01-08T03:57:30.167Z,85.86
2023-01-08T03:59:10.414Z,85.55
2023-01-08T04:00:50.698Z,85.89
2023-01-08T04:02:31.201Z,85.58
2023-01-08T04:04:11.372Z,85.8
2023-01-08T04:05:51.607Z,86.02
2023-01-08T04:07:31.959Z,86.02
2023-01-08T04:09:12.200Z,86.26
2023-01-08T04:10:52.477Z,86.4
2023-01-08T04:12:32.764Z,86.71
2023-01-08T04:14:13.100Z,86.8
2023-01-08T04:15:53.467Z,86.8
2023-01-08T04:17:33.615Z,86.98
2023-01-08T04:19:13.943Z,87.13
2023-01-08T04:20:54.237Z,87.27
2023-01-08T04:22:34.526Z,87.29
2023-01-08T04:24:14.814Z,87.56
2023-01-08T04:25:55.107Z,87.55
2023-01-08T04:27:35.404Z,87.58
2023-01-08T04:29:15.705Z,87.58
2023-01-08T04:30:56.056Z,87.58
2023-01-08T04:32:36.388Z,87.57
2023-01-08T04:34:16.763Z,87.56
2023-01-08T04:35:57.040Z,87.64
2023-01-08T04:37:37.344Z,87.75
2023-01-08T04:39:17.650Z,87.71
2023-01-08T04:40:57.932Z,87.75
2023-01-08T04:42:38.227Z,87.86
2023-01-08T04:44:18.511Z,87.9
2023-01-08T04:45:58.922Z,87.97
2023-01-08T04:47:39.121Z,87.99
2023-01-08T04:49:19.387Z,87.83
2023-01-08T04:50:59.693Z,87.5
2023-01-08T04:52:40.016Z,87.26
2023-01-08T04:54:20.326Z,87.24
2023-01-08T04:56:00.611Z,87.27
2023-01-08T04:57:40.896Z,87.37
2023-01-08T04:59:21.192Z,87.34
2023-01-08T05:01:01.505Z,87.62
2023-01-08T05:02:42.044Z,87.7
2023-01-08T05:04:22.062Z,88.06
2023-01-08T05:06:02.369Z,88.42
2023-01-08T05:07:42.665Z,88.8
2023-01-08T05:09:22.926Z,89.12
2023-01-08T05:11:03.240Z,89.34
2023-01-08T05:12:43.547Z,89.56
2023-01-08T05:14:23.927Z,89.73
2023-01-08T05:16:04.200Z,89.92
2023-01-08T05:19:24.737Z,90.32
2023-01-08T05:21:05.116Z,90.39
2023-01-08T05:22:45.319Z,90.8
2023-01-08T05:24:25.618Z,91.01
2023-01-08T05:26:05.944Z,91.11
2023-01-08T05:27:46.197Z,91.39
2023-01-08T05:29:26.510Z,91.48
2023-01-08T05:31:06.873Z,91.77
2023-01-08T05:32:47.081Z,92.01
2023-01-08T05:34:27.362Z,92.23
2023-01-08T05:36:07.664Z,92.5
2023-01-08T05:37:47.955Z,92.8
2023-01-08T05:39:28.248Z,92.93
2023-01-08T05:41:08.535Z,93.19
2023-01-08T05:42:48.852Z,93.4
2023-01-08T05:44:29.137Z,93.61
2023-01-08T05:46:09.470Z,93.79
2023-01-08T05:47:49.712Z,93.86
2023-01-08T05:49:30.022Z,94.04
2023-01-08T05:51:10.310Z,94.22
2023-01-08T05:52:50.614Z,94.38
2023-01-08T05:54:30.920Z,94.45
2023-01-08T05:56:11.233Z,94.58
2023-01-08T05:57:51.504Z,94.67
2023-01-08T05:59:31.795Z,94.83
2023-01-08T06:01:12.171Z,94.95
2023-01-08T06:02:52.417Z,95.05
2023-01-08T06:04:32.776Z,95.16
2023-01-08T06:06:13.008Z,95.31
2023-01-08T06:07:53.280Z,95.39
2023-01-08T06:09:33.582Z,95.56
2023-01-08T06:11:13.896Z,95.61
2023-01-08T06:12:54.173Z,95.7
2023-01-08T06:14:34.479Z,95.8
2023-01-08T06:16:14.847Z,95.89
2023-01-08T06:17:55.075Z,95.98
2023-01-08T06:19:35.400Z,96.04
2023-01-08T06:21:15.699Z,96.13
2023-01-08T06:22:56.017Z,96.32
2023-01-08T06:24:36.289Z,96.38
2023-01-08T06:26:16.601Z,96.48
2023-01-08T06:27:56.891Z,96.61
2023-01-08T06:29:37.191Z,96.7
2023-01-08T06:31:17.533Z,96.79
2023-01-08T06:32:57.815Z,96.88
2023-01-08T06:34:43.717Z,96.95
2023-01-08T06:36:24.145Z,97.02
2023-01-08T06:38:04.500Z,97.16
2023-01-08T06:39:44.867Z,97.22
2023-01-08T06:41:25.133Z,97.29
2023-01-08T06:43:05.456Z,97.32
2023-01-08T06:44:45.765Z,97.41
2023-01-08T06:46:26.137Z,97.43
2023-01-08T06:48:06.304Z,97.53
2023-01-08T06:49:46.624Z,97.53
2023-01-08T06:51:26.928Z,97.54
2023-01-08T06:53:07.230Z,97.54
2023-01-08T06:54:47.534Z,97.54
2023-01-08T06:56:27.846Z,97.52
2023-01-08T06:58:08.146Z,97.54
2023-01-08T06:59:48.505Z,97.51
2023-01-08T07:01:29.078Z,97.56
2023-01-08T07:03:09.415Z,97.54
2023-01-08T07:04:49.530Z,97.57
2023-01-08T07:06:29.775Z,97.58
2023-01-08T07:08:10.054Z,97.52
2023-01-08T07:09:50.347Z,97.46
2023-01-08T07:11:36.788Z,97.38
2023-01-08T07:13:17.173Z,97.45
2023-01-08T07:14:57.542Z,97.49
2023-01-08T07:16:37.876Z,97.6
2023-01-08T07:18:18.177Z,97.54
2023-01-08T07:19:58.514Z,97.53
2023-01-08T07:21:38.855Z,97.51
2023-01-08T07:23:19.209Z,97.53
2023-01-08T07:24:59.506Z,97.63
2023-01-08T07:26:39.782Z,97.62
2023-01-08T07:28:20.128Z,97.67
2023-01-08T07:30:00.445Z,97.54
2023-01-08T07:31:40.800Z,97.59
2023-01-08T07:33:21.091Z,97.58
2023-01-08T07:35:01.376Z,97.57
2023-01-08T07:36:41.727Z,97.52
2023-01-08T07:38:22.049Z,97.44
2023-01-08T07:40:02.382Z,97.48
2023-01-08T07:41:42.673Z,97.49
2023-01-08T07:43:22.990Z,97.46
2023-01-08T07:45:03.334Z,97.53
2023-01-08T07:46:43.764Z,97.56
2023-01-08T07:48:23.988Z,97.65
2023-01-08T07:50:04.280Z,97.64
2023-01-08T07:51:44.610Z,97.67
2023-01-08T07:53:24.890Z,97.72
2023-01-08T07:55:05.113Z,97.77
2023-01-08T07:56:45.373Z,97.8
2023-01-08T07:58:25.688Z,97.89
2023-01-08T08:00:06.089Z,97.96
2023-01-08T08:01:46.752Z,98
2023-01-08T08:03:26.960Z,98.02
2023-01-08T08:05:07.164Z,98.05
2023-01-08T08:06:47.463Z,98.08
2023-01-08T08:08:27.832Z,98.14
2023-01-08T08:10:08.110Z,98.14
2023-01-08T08:11:48.445Z,98.18
2023-01-08T08:13:28.786Z,98.17
2023-01-08T08:15:09.093Z,98.2
2023-01-08T08:16:49.397Z,98.17
2023-01-08T08:18:29.728Z,98.1
2023-01-08T08:20:10.056Z,98.11
2023-01-08T08:21:50.327Z,98.06
2023-01-08T08:23:30.612Z,98.03
2023-01-08T08:25:11.044Z,98.01
2023-01-08T08:26:51.382Z,97.93
2023-01-08T08:28:31.728Z,97.87
2023-01-08T08:30:12.089Z,97.84
2023-01-08T08:31:52.415Z,97.79
2023-01-08T08:33:32.813Z,97.74
2023-01-08T08:35:13.207Z,97.66
2023-01-08T08:36:53.610Z,97.6
2023-01-08T08:38:34.012Z,97.47
2023-01-08T08:40:14.336Z,97.14
2023-01-08T08:41:54.735Z,97.1
2023-01-08T08:43:35.145Z,97.04
2023-01-08T08:45:15.448Z,96.97
2023-01-08T08:46:55.812Z,96.92
2023-01-08T08:48:36.113Z,96.91
2023-01-08T08:50:16.452Z,96.92
2023-01-08T08:51:56.795Z,96.88
2023-01-08T08:53:37.087Z,96.87
2023-01-08T08:55:17.513Z,96.81
2023-01-08T08:56:57.624Z,96.69
2023-01-08T08:58:37.998Z,96.64
2023-01-08T09:00:18.356Z,96.52
2023-01-08T09:01:58.814Z,96.51
2023-01-08T09:03:39.162Z,96.53
2023-01-08T09:05:19.318Z,96.44
2023-01-08T09:06:59.658Z,96.19
2023-01-08T09:08:39.947Z,96.05
2023-01-08T09:10:20.266Z,95.88
2023-01-08T09:12:00.571Z,95.6
2023-01-08T09:13:40.889Z,95.39
2023-01-08T09:15:21.218Z,95.18
2023-01-08T09:17:01.534Z,94.99
2023-01-08T09:18:41.822Z,94.55
2023-01-08T09:20:22.166Z,93.7
2023-01-08T09:22:02.484Z,93.13
2023-01-08T09:23:42.854Z,92.72
2023-01-08T09:25:23.152Z,92.83
2023-01-08T09:27:03.573Z,93.05
2023-01-08T09:28:43.919Z,93.41
2023-01-08T09:30:24.349Z,93.44
2023-01-08T09:32:04.738Z,93.67
2023-01-08T09:33:45.115Z,93.7
2023-01-08T09:35:25.470Z,93.66
2023-01-08T09:37:05.923Z,93.67
2023-01-08T09:38:46.268Z,93.67
2023-01-08T09:40:26.698Z,93.5
2023-01-08T09:42:07.109Z,93.59
2023-01-08T09:43:47.479Z,93.43
2023-01-08T09:45:29.176Z,93.32
2023-01-08T09:47:08.214Z,92.82
2023-01-08T09:48:48.528Z,93.19
2023-01-08T09:50:28.920Z,93.01
2023-01-08T09:52:09.284Z,92.54
2023-01-08T09:53:49.576Z,92.43
2023-01-08T09:55:29.973Z,92.31
2023-01-08T09:57:10.320Z,91.41
2023-01-08T09:58:50.818Z,91.5
2023-01-08T10:00:31.010Z,91.58
2023-01-08T10:02:11.499Z,91.44
2023-01-08T10:03:51.656Z,90.92
2023-01-08T10:05:32.079Z,90.51
2023-01-08T10:07:12.443Z,90.19
2023-01-08T10:08:52.832Z,90.47
2023-01-08T10:10:33.233Z,90.52
2023-01-08T10:12:13.629Z,90.58
2023-01-08T10:13:54.004Z,90.15
2023-01-08T10:15:34.457Z,90.35
2023-01-08T10:17:14.837Z,90.15
2023-01-08T10:18:55.177Z,90.32
2023-01-08T10:20:35.507Z,89.45
2023-01-08T10:22:15.866Z,89.38
2023-01-08T10:23:56.249Z,89.15
2023-01-08T10:25:36.548Z,89.08
2023-01-08T10:27:16.903Z,88.76
2023-01-08T10:28:57.181Z,88.53
2023-01-08T10:30:37.542Z,88.95
2023-01-08T10:32:17.881Z,88.48
2023-01-08T10:33:58.308Z,88
2023-01-08T10:35:38.627Z,88.47
2023-01-08T10:37:18.898Z,88.29
2023-01-08T10:38:59.280Z,88.04
2023-01-08T10:40:39.644Z,88.54
2023-01-08T10:42:19.961Z,88.55
2023-01-08T10:44:00.306Z,88.24
2023-01-08T10:45:40.730Z,88.11
2023-01-08T10:47:20.959Z,88.51
2023-01-08T10:49:01.263Z,88.57
2023-01-08T10:50:41.558Z,88.67
2023-01-08T10:52:21.869Z,89.19
2023-01-08T10:54:02.193Z,88.5
2023-01-08T10:55:42.491Z,89.19
2023-01-08T10:57:22.800Z,89.1
2023-01-08T10:59:03.173Z,89.24
2023-01-08T11:00:43.491Z,89.09
2023-01-08T11:02:23.814Z,89.31
2023-01-08T11:04:04.102Z,89.62
2023-01-08T11:05:44.455Z,89.43
2023-01-08T11:07:24.760Z,89.55
2023-01-08T11:09:05.185Z,89.9
2023-01-08T11:10:45.559Z,90.28
2023-01-08T11:12:25.942Z,89.18
2023-01-08T11:14:06.225Z,88.63
2023-01-08T11:15:46.538Z,88.63
2023-01-08T11:17:26.889Z,87.94
2023-01-08T11:19:07.231Z,88
2023-01-08T11:20:47.610Z,87.69
2023-01-08T11:22:27.944Z,87.8
2023-01-08T11:24:08.288Z,87.2
2023-01-08T11:25:48.632Z,87.76
2023-01-08T11:27:29.034Z,87.69
2023-01-08T11:29:09.408Z,87.54
2023-01-08T11:30:49.826Z,87.76
2023-01-08T11:32:30.181Z,86.99
2023-01-08T11:34:10.579Z,87
2023-01-08T11:35:50.888Z,85.82
2023-01-08T11:37:31.231Z,86.39
2023-01-08T11:39:11.579Z,86.62
2023-01-08T11:40:51.989Z,85.6
2023-01-08T11:42:32.353Z,85.25
2023-01-08T11:44:12.745Z,85.25
2023-01-08T11:45:53.268Z,84.9
2023-01-08T11:47:33.592Z,86.28
2023-01-08T11:49:14.033Z,86.72
2023-01-08T11:50:54.433Z,87.2
2023-01-08T11:52:34.800Z,87.31
2023-01-08T11:54:15.039Z,86.96
2023-01-08T11:55:55.366Z,86.69
2023-01-08T11:57:35.622Z,85.87
2023-01-08T11:59:15.880Z,85.05
2023-01-08T12:00:56.186Z,84
2023-01-08T12:02:36.442Z,85.1
2023-01-08T12:04:16.699Z,85.28
2023-01-08T12:05:56.984Z,85.43
2023-01-08T12:07:37.240Z,85.19
2023-01-08T12:09:17.558Z,83.8
2023-01-08T12:10:57.849Z,83.44
2023-01-08T12:12:38.136Z,82.74
2023-01-08T12:14:18.449Z,82.78
2023-01-08T12:15:58.725Z,82.8
2023-01-08T12:17:39.022Z,81.4
2023-01-08T12:19:19.337Z,81.42
2023-01-08T12:20:59.599Z,80.69
2023-01-08T12:22:39.944Z,81.05
2023-01-08T12:24:20.204Z,79.91
2023-01-08T12:26:00.502Z,78.59
2023-01-08T12:27:56.368Z,78.29
2023-01-08T12:29:21.118Z,77.71
2023-01-08T12:31:01.379Z,76.43
2023-01-08T12:32:41.687Z,77.07
2023-01-08T12:34:21.944Z,77.32
2023-01-08T12:36:02.228Z,76.96
2023-01-08T12:37:42.555Z,77.61
2023-01-08T12:39:22.867Z,77.53
2023-01-08T12:41:03.121Z,77.79
2023-01-08T12:42:47.207Z,77.92
2023-01-08T12:44:23.742Z,78.61
2023-01-08T12:46:04.137Z,78.78
2023-01-08T12:47:44.322Z,79.65
2023-01-08T12:49:24.640Z,77.99
2023-01-08T12:51:04.948Z,78.41
2023-01-08T12:52:45.256Z,78.04
2023-01-08T12:54:25.537Z,78.53
2023-01-08T12:56:05.839Z,78.53
2023-01-08T12:57:46.148Z,78.89
2023-01-08T12:59:26.451Z,78.78
2023-01-08T13:01:06.765Z,79.73
2023-01-08T13:02:47.144Z,78.93
2023-01-08T13:04:27.330Z,79.04
2023-01-08T13:06:07.589Z,79.44
2023-01-08T13:07:47.937Z,79.02
2023-01-08T13:09:28.250Z,79.01
2023-01-08T13:11:08.548Z,79.12
2023-01-08T13:12:48.837Z,79.35
2023-01-08T13:14:29.332Z,79.69
2023-01-08T13:16:09.772Z,79.29
2023-01-08T13:17:50.091Z,79.5
2023-01-08T13:19:30.516Z,79.55
2023-01-08T13:21:10.884Z,79.88
2023-01-08T13:22:51.234Z,79.39
2023-01-08T13:24:31.680Z,79.24
2023-01-08T13:26:12.052Z,78.61
2023-01-08T13:27:52.472Z,78.85
2023-01-08T13:29:38.324Z,78.67
2023-01-08T13:31:18.724Z,78.88
2023-01-08T13:32:59.093Z,78.34
2023-01-08T13:34:39.511Z,79.04
2023-01-08T13:36:19.882Z,78.95
2023-01-08T13:38:00.228Z,78.96
2023-01-08T13:39:40.692Z,79.24
2023-01-08T13:41:21.022Z,79.19
2023-01-08T13:43:01.432Z,79.13
2023-01-08T13:44:41.809Z,78.93
2023-01-08T13:46:22.185Z,79.5
2023-01-08T13:48:02.566Z,79.02
2023-01-08T13:49:42.984Z,79.21
2023-01-08T13:51:23.323Z,79.63
2023-01-08T13:53:03.716Z,79.58
2023-01-08T13:54:44.113Z,79.42
2023-01-08T13:56:24.485Z,79.51
2023-01-08T13:58:04.762Z,78.07
2023-01-08T13:59:45.051Z,78.73
2023-01-08T14:01:25.423Z,78.97
2023-01-08T14:03:05.649Z,79.26
2023-01-08T14:04:45.979Z,78.72
2023-01-08T14:06:26.233Z,78.43
2023-01-08T14:08:06.576Z,79.02
2023-01-08T14:09:46.864Z,79.13
2023-01-08T14:11:27.163Z,79.57
2023-01-08T14:13:07.459Z,79.14
2023-01-08T14:14:47.757Z,79.03
2023-01-08T14:16:28.086Z,79.43
2023-01-08T14:18:08.352Z,79.17
2023-01-08T14:19:48.689Z,79.31
2023-01-08T14:21:28.931Z,79.51
2023-01-08T14:23:09.214Z,79.6
2023-01-08T14:24:49.516Z,80.85
2023-01-08T14:26:29.804Z,82.24
2023-01-08T14:28:10.106Z,83.13
2023-01-08T14:29:50.373Z,83.32
2023-01-08T14:31:30.743Z,82.96
2023-01-08T14:33:11.000Z,83.5
2023-01-08T14:34:51.297Z,83.69
2023-01-08T14:36:31.595Z,83.88
2023-01-08T14:38:11.919Z,83.37
2023-01-08T14:39:54.524Z,83.78
2023-01-08T14:41:32.553Z,83.59
2023-01-08T14:43:12.852Z,83.82
2023-01-08T14:44:53.137Z,83.73
2023-01-08T14:46:33.380Z,83.45
2023-01-08T14:48:13.679Z,83.31
2023-01-08T14:49:53.940Z,83.18
2023-01-08T14:51:34.236Z,82.88
2023-01-08T14:53:14.534Z,82.94
2023-01-08T14:54:54.846Z,82.92
2023-01-08T14:56:35.151Z,83.17
2023-01-08T14:58:15.420Z,83.68
2023-01-08T14:59:55.732Z,83.78
2023-01-08T15:01:36.094Z,83.91
2023-01-08T15:03:16.302Z,84.22
2023-01-08T15:04:56.580Z,84.34
2023-01-08T15:06:36.887Z,84.44
2023-01-08T15:08:17.187Z,84.22
2023-01-08T15:09:57.490Z,84.15
2023-01-08T15:11:37.801Z,84.24
2023-01-08T15:13:18.171Z,84.3
2023-01-08T15:14:58.405Z,84.75
2023-01-08T15:16:38.844Z,85
2023-01-08T15:18:19.000Z,85.33
2023-01-08T15:19:59.377Z,85.75
2023-01-08T15:21:39.592Z,86.14
2023-01-08T15:23:19.890Z,86.43
2023-01-08T15:25:00.205Z,86.57
2023-01-08T15:26:40.497Z,86.7
2023-01-08T15:28:20.772Z,86.76
2023-01-08T15:30:01.075Z,87.18
2023-01-08T15:31:41.404Z,87.48
2023-01-08T15:33:21.637Z,87.68
2023-01-08T15:35:02.034Z,87.68
2023-01-08T15:36:42.360Z,87.89
2023-01-08T15:38:22.716Z,88
2023-01-08T15:40:03.157Z,88.17
2023-01-08T15:41:43.605Z,88.32
2023-01-08T15:43:23.882Z,88.51
2023-01-08T15:45:04.247Z,88.59
2023-01-08T15:46:44.574Z,88.71
2023-01-08T15:48:24.982Z,88.83
2023-01-08T15:50:05.424Z,89.02
2023-01-08T15:51:45.580Z,89.34
2023-01-08T15:53:25.778Z,89.44
2023-01-08T15:55:06.233Z,89.47
2023-01-08T15:56:46.517Z,89.35
2023-01-08T15:58:26.823Z,89.3
2023-01-08T16:00:07.220Z,89.32
2023-01-08T16:01:47.636Z,89.29
2023-01-08T16:03:27.806Z,89.28
2023-01-08T16:05:08.158Z,89.2
2023-01-08T16:06:48.519Z,89.11
2023-01-08T16:08:28.902Z,89.03
2023-01-08T16:10:09.300Z,89.02
2023-01-08T16:11:49.712Z,88.98
2023-01-08T16:13:30.050Z,89.16
2023-01-08T16:15:10.351Z,89.11
2023-01-08T16:16:50.615Z,89.34
2023-01-08T16:18:30.905Z,89.56
2023-01-08T16:20:11.340Z,89.58
2023-01-08T16:21:51.699Z,89.73
2023-01-08T16:23:32.169Z,89.88
2023-01-08T16:25:12.575Z,89.99
2023-01-08T16:26:52.918Z,89.82
2023-01-08T16:28:33.308Z,89.88
2023-01-08T16:30:13.693Z,90.12
2023-01-08T16:31:54.103Z,90.12
2023-01-08T16:33:34.417Z,89.94
2023-01-08T16:35:14.797Z,89.91
2023-01-08T16:36:55.207Z,89.88
2023-01-08T16:38:35.474Z,89.91
2023-01-08T16:40:15.844Z,89.75
2023-01-08T16:41:56.092Z,89.36
2023-01-08T16:43:36.435Z,89.21
2023-01-08T16:45:16.825Z,89.06
2023-01-08T16:46:57.184Z,88.76
2023-01-08T16:48:37.648Z,88.66
2023-01-08T16:50:17.950Z,88.59
2023-01-08T16:51:58.240Z,88.52
2023-01-08T16:53:38.545Z,88.24
2023-01-08T16:55:18.863Z,88.14
2023-01-08T16:56:59.137Z,88.26
2023-01-08T16:58:39.441Z,88.26
2023-01-08T17:00:19.692Z,88.25
2023-01-08T17:01:59.952Z,88.4
2023-01-08T17:03:40.252Z,88.17
2023-01-08T17:05:20.582Z,88.22
2023-01-08T17:07:00.906Z,88.62
2023-01-08T17:08:41.185Z,88.92
2023-01-08T17:10:21.625Z,89.01
2023-01-08T17:12:01.933Z,89.05
2023-01-08T17:13:42.310Z,89.1
2023-01-08T17:15:22.677Z,89.05
2023-01-08T17:17:03.021Z,88.71
2023-01-08T17:18:43.435Z,88.68
2023-01-08T17:20:23.811Z,88.81
2023-01-08T17:22:04.171Z,88.72
2023-01-08T17:23:44.476Z,89.18
2023-01-08T17:25:24.802Z,89.31
2023-01-08T17:27:05.150Z,89.27
2023-01-08T17:28:45.427Z,89.39
2023-01-08T17:30:25.769Z,89.53
2023-01-08T17:32:06.132Z,89.4
2023-01-08T17:33:46.379Z,89.72
2023-01-08T17:35:26.722Z,90.25
2023-01-08T17:37:07.077Z,90.65
2023-01-08T17:38:47.325Z,90.96
2023-01-08T17:40:27.705Z,91.21
2023-01-08T17:42:07.962Z,91.3
2023-01-08T17:43:48.328Z,91.03
2023-01-08T17:45:28.684Z,90.04
2023-01-08T17:47:09.007Z,89.46
2023-01-08T17:48:49.299Z,88.76
2023-01-08T17:50:29.614Z,88.65
2023-01-08T17:52:09.966Z,87.75
2023-01-08T17:53:50.233Z,87.32
2023-01-08T17:55:30.509Z,87
2023-01-08T17:57:10.928Z,87.05
2023-01-08T17:58:51.201Z,86.54
2023-01-08T18:00:31.495Z,86.36
2023-01-08T18:02:13.402Z,86.35
2023-01-08T18:03:52.127Z,86.28
2023-01-08T18:05:32.460Z,86.32
2023-01-08T18:07:12.768Z,86.27
2023-01-08T18:08:53.073Z,86.29
2023-01-08T18:10:33.419Z,86.75
2023-01-08T18:12:13.734Z,87.23
2023-01-08T18:13:54.094Z,88.13
2023-01-08T18:15:34.391Z,88.67
2023-01-08T18:17:14.711Z,89.78
2023-01-08T18:18:55.017Z,90.68
2023-01-08T18:20:35.308Z,90.96
2023-01-08T18:22:15.586Z,91.49
2023-01-08T18:23:55.951Z,91.73
2023-01-08T18:25:36.322Z,92.03
2023-01-08T18:27:16.623Z,91.99
2023-01-08T18:28:56.961Z,92.02
2023-01-08T18:30:37.304Z,91.21
2023-01-08T18:32:17.593Z,90.09
2023-01-08T18:33:57.916Z,89.37
2023-01-08T18:35:38.252Z,88.47
2023-01-08T18:37:18.530Z,87.93
2023-01-08T18:38:58.865Z,87.72
2023-01-08T18:40:39.188Z,87.44
2023-01-08T18:42:19.502Z,87.13
2023-01-08T18:43:59.879Z,86.96
2023-01-08T18:45:40.315Z,86.78
2023-01-08T18:47:20.678Z,86.82
2023-01-08T18:49:01.038Z,87.35
2023-01-08T18:50:41.451Z,88.01
2023-01-08T18:52:21.853Z,88.23
2023-01-08T18:54:02.236Z,88.25
2023-01-08T18:55:42.636Z,88.54
2023-01-08T18:57:23.066Z,88.46
2023-01-08T18:59:03.399Z,88.71
2023-01-08T19:00:43.814Z,88.73
2023-01-08T19:02:24.308Z,88.66
2023-01-08T19:04:04.612Z,88.4
2023-01-08T19:05:44.948Z,88.31
2023-01-08T19:07:25.350Z,88.22
2023-01-08T19:09:05.721Z,88.32
2023-01-08T19:10:46.091Z,88.47
2023-01-08T19:12:26.446Z,88.53
2023-01-08T19:14:06.841Z,88.67
2023-01-08T19:15:47.329Z,88.91
2023-01-08T19:17:27.665Z,89.21
2023-01-08T19:19:08.071Z,89.43
2023-01-08T19:20:48.447Z,89.66
2023-01-08T19:22:28.822Z,89.75
2023-01-08T19:24:09.192Z,89.86
2023-01-08T19:25:49.514Z,90.19
2023-01-08T19:27:29.804Z,90.69
2023-01-08T19:29:10.077Z,90.8
2023-01-08T19:30:50.431Z,90.94
2023-01-08T19:32:30.688Z,90.94
2023-01-08T19:34:10.987Z,91.05
2023-01-08T19:35:51.310Z,91.38
2023-01-08T19:37:31.601Z,91.68
2023-01-08T19:39:11.873Z,91.94
2023-01-08T19:40:52.190Z,92.02
2023-01-08T19:42:32.504Z,92.08
2023-01-08T19:44:12.769Z,92.18
2023-01-08T19:45:53.100Z,92.44
2023-01-08T19:47:33.400Z,92.54
2023-01-08T19:49:13.675Z,92.69
2023-01-08T19:50:53.970Z,92.81
2023-01-08T19:52:34.307Z,92.82
2023-01-08T19:54:14.564Z,92.73
2023-01-08T19:55:54.848Z,93
2023-01-08T19:57:35.164Z,93.11
2023-01-08T19:59:15.447Z,92.96
2023-01-08T20:00:55.818Z,93.05
2023-01-08T20:02:36.110Z,93.14
2023-01-08T20:04:16.360Z,92.81
2023-01-08T20:05:56.681Z,92.79
2023-01-08T20:07:36.993Z,92.86
2023-01-08T20:09:17.272Z,93
2023-01-08T20:10:57.556Z,93.25
2023-01-08T20:12:37.904Z,93.06
2023-01-08T20:14:20.656Z,93.14
2023-01-08T20:15:58.513Z,93.1
2023-01-08T20:17:38.752Z,93.13
2023-01-08T20:19:19.045Z,92.96
2023-01-08T20:20:59.385Z,92.67
2023-01-08T20:22:39.703Z,92.52
2023-01-08T20:24:19.961Z,92.31
2023-01-08T20:26:00.284Z,92.26
2023-01-08T20:27:40.551Z,92.45
2023-01-08T20:29:20.838Z,92.37
2023-01-08T20:31:01.161Z,92.45
2023-01-08T20:32:41.449Z,92.27
2023-01-08T20:34:21.746Z,92.39
2023-01-08T20:36:02.010Z,92.25
2023-01-08T20:37:42.334Z,92.38
2023-01-08T20:39:22.601Z,92.27
2023-01-08T20:41:02.899Z,92.5
2023-01-08T20:42:43.204Z,92.59
2023-01-08T20:44:23.494Z,92.63
2023-01-08T20:46:03.898Z,92.69
2023-01-08T20:47:44.113Z,93.13
2023-01-08T20:49:24.381Z,92.89
2023-01-08T20:51:04.698Z,92.92
2023-01-08T20:52:45.012Z,93.13
2023-01-08T20:54:25.349Z,92.84
2023-01-08T20:56:05.905Z,92.53
2023-01-08T20:57:46.054Z,92.25
2023-01-08T20:59:26.358Z,92.31
2023-01-08T21:01:06.717Z,92.41
2023-01-08T21:02:46.919Z,92.58
2023-01-08T21:04:27.305Z,92.74
2023-01-08T21:06:07.491Z,92.59
2023-01-08T21:07:47.846Z,92.55
2023-01-08T21:09:28.097Z,92.79
2023-01-08T21:11:08.423Z,92.75
2023-01-08T21:12:48.732Z,92.69
2023-01-08T21:14:29.047Z,92.7
2023-01-08T21:16:09.345Z,92.87
2023-01-08T21:17:49.626Z,92.92
2023-01-08T21:19:29.891Z,92.9
2023-01-08T21:21:10.201Z,93.04
2023-01-08T21:22:50.503Z,93.59
2023-01-08T21:24:30.816Z,93.25
2023-01-08T21:26:11.097Z,93.42
2023-01-08T21:27:51.390Z,93.68
2023-01-08T21:29:31.676Z,93.69
2023-01-08T21:31:12.013Z,93.73
2023-01-08T21:32:52.286Z,94.02
2023-01-08T21:34:32.577Z,93.98
2023-01-08T21:36:12.859Z,94.3
2023-01-08T21:37:53.199Z,93.99
2023-01-08T21:39:33.422Z,93.81
2023-01-08T21:41:13.792Z,94.14